sensor_id;sensor_type;location;lat;lon;timestamp;pressure;altitude;pressure_sealevel;temperature;humidity
18678;BME280;9469;51.114;13.914;2022-08-19T00:41:17;97970.41;;;21.86;100.00
18678;BME280;9469;51.114;13.914;2022-08-19T00:46:29;97959.94;;;21.74;100.00
18678;BME280;9469;51.114;13.914;2022-08-19T00:51:36;97945.69;;;21.60;100.00
18678;BME280;9469;51.114;13.914;2022-08-19T00:56:45;97945.28;;;21.65;100.00
18678;BME280;9469;51.114;13.914;2022-08-19T01:01:55;97960.78;;;21.64;100.00
18678;BME280;9469;51.114;13.914;2022-08-19T01:07:04;97947.28;;;21.43;100.00
18678;BME280;9469;51.114;13.914;2022-08-19T01:40:50;97974.69;;;21.59;100.00
18678;BME280;9469;51.114;13.914;2022-08-19T01:45:58;97953.88;;;21.28;100.00
18678;BME280;9469;51.114;13.914;2022-08-19T04:08:23;97990.94;;;21.38;100.00
18678;BME280;9469;51.114;13.914;2022-08-19T05:45:42;98067.84;;;21.05;100.00
18678;BME280;9469;51.114;13.914;2022-08-19T06:59:05;98197.66;;;20.47;100.00
18678;BME280;9469;51.114;13.914;2022-08-19T07:04:13;98214.28;;;20.49;100.00
18678;BME280;9469;51.114;13.914;2022-08-19T07:09:20;98208.56;;;20.61;100.00
18678;BME280;9469;51.114;13.914;2022-08-19T07:14:30;98212.44;;;20.67;100.00
18678;BME280;9469;51.114;13.914;2022-08-19T07:19:39;98199.72;;;20.68;100.00
18678;BME280;9469;51.114;13.914;2022-08-19T07:24:45;98209.03;;;20.78;100.00
18678;BME280;9469;51.114;13.914;2022-08-19T07:29:55;98220.22;;;20.69;100.00
18678;BME280;9469;51.114;13.914;2022-08-19T07:35:14;98218.59;;;20.61;100.00
18678;BME280;9469;51.114;13.914;2022-08-19T07:51:28;98209.41;;;20.69;100.00
18678;BME280;9469;51.114;13.914;2022-08-19T07:56:41;98219.34;;;20.54;100.00
18678;BME280;9469;51.114;13.914;2022-08-19T08:01:57;98231.00;;;20.69;100.00
18678;BME280;9469;51.114;13.914;2022-08-19T08:12:44;98223.66;;;20.66;100.00
18678;BME280;9469;51.114;13.914;2022-08-19T08:34:49;98254.22;;;20.73;100.00
18678;BME280;9469;51.114;13.914;2022-08-19T08:39:56;98259.50;;;20.59;100.00
18678;BME280;9469;51.114;13.914;2022-08-19T08:45:18;98256.09;;;20.69;100.00
18678;BME280;9469;51.114;13.914;2022-08-19T08:50:35;98271.56;;;20.72;100.00
18678;BME280;9469;51.114;13.914;2022-08-19T08:55:52;98266.59;;;20.82;100.00
18678;BME280;9469;51.114;13.914;2022-08-19T09:01:04;98269.78;;;20.98;100.00
18678;BME280;9469;51.114;13.914;2022-08-19T09:06:25;98275.59;;;21.03;100.00
18678;BME280;9469;51.114;13.914;2022-08-19T09:17:16;98281.06;;;21.07;100.00
18678;BME280;9469;51.114;13.914;2022-08-19T09:22:45;98275.75;;;21.31;100.00
18678;BME280;9469;51.114;13.914;2022-08-19T10:18:38;98257.78;;;22.06;100.00
18678;BME280;9469;51.114;13.914;2022-08-19T10:23:53;98257.78;;;22.66;100.00
18678;BME280;9469;51.114;13.914;2022-08-19T10:29:06;98269.34;;;22.95;100.00
18678;BME280;9469;51.114;13.914;2022-08-19T10:45:59;98286.44;;;22.49;100.00
18678;BME280;9469;51.114;13.914;2022-08-19T12:22:33;98356.88;;;22.28;100.00
18678;BME280;9469;51.114;13.914;2022-08-19T12:27:44;98350.66;;;22.10;100.00
18678;BME280;9469;51.114;13.914;2022-08-19T12:33:02;98354.91;;;22.11;100.00
18678;BME280;9469;51.114;13.914;2022-08-19T12:38:18;98364.22;;;22.28;100.00
18678;BME280;9469;51.114;13.914;2022-08-19T12:43:31;98348.41;;;22.65;100.00
18678;BME280;9469;51.114;13.914;2022-08-19T12:48:43;98348.78;;;22.60;100.00
18678;BME280;9469;51.114;13.914;2022-08-19T13:16:07;98344.09;;;23.10;100.00
18678;BME280;9469;51.114;13.914;2022-08-19T13:49:50;98351.47;;;22.35;100.00
18678;BME280;9469;51.114;13.914;2022-08-19T14:34:05;98356.50;;;22.40;100.00
18678;BME280;9469;51.114;13.914;2022-08-19T14:45:17;98380.06;;;22.15;100.00
18678;BME280;9469;51.114;13.914;2022-08-19T15:07:43;98360.19;;;21.72;100.00
18678;BME280;9469;51.114;13.914;2022-08-19T15:18:35;98356.81;;;22.00;100.00
18678;BME280;9469;51.114;13.914;2022-08-19T15:29:35;98364.50;;;21.87;100.00
18678;BME280;9469;51.114;13.914;2022-08-19T17:06:51;98321.16;;;21.80;100.00
18678;BME280;9469;51.114;13.914;2022-08-19T17:12:04;98335.47;;;21.77;100.00
18678;BME280;9469;51.114;13.914;2022-08-19T17:44:52;98335.78;;;21.58;100.00
18678;BME280;9469;51.114;13.914;2022-08-19T17:50:06;98333.09;;;21.65;100.00
18678;BME280;9469;51.114;13.914;2022-08-19T17:55:19;98347.03;;;21.74;100.00
18678;BME280;9469;51.114;13.914;2022-08-19T18:00:40;98375.22;;;21.59;100.00
18678;BME280;9469;51.114;13.914;2022-08-19T18:05:59;98386.75;;;21.49;100.00
18678;BME280;9469;51.114;13.914;2022-08-19T18:11:11;98395.31;;;21.55;100.00
18678;BME280;9469;51.114;13.914;2022-08-19T18:16:22;98419.28;;;21.56;100.00
18678;BME280;9469;51.114;13.914;2022-08-19T18:21:34;98437.03;;;21.50;100.00
18678;BME280;9469;51.114;13.914;2022-08-19T18:32:18;98456.34;;;21.49;100.00
18678;BME280;9469;51.114;13.914;2022-08-19T18:37:32;98470.75;;;21.63;100.00
18678;BME280;9469;51.114;13.914;2022-08-19T18:42:54;98458.34;;;21.59;100.00
18678;BME280;9469;51.114;13.914;2022-08-19T18:48:20;98455.59;;;21.48;100.00
18678;BME280;9469;51.114;13.914;2022-08-19T18:53:46;98454.75;;;21.37;100.00
18678;BME280;9469;51.114;13.914;2022-08-19T18:59:04;98426.06;;;21.29;100.00
18678;BME280;9469;51.114;13.914;2022-08-19T19:04:14;98443.53;;;21.42;100.00
18678;BME280;9469;51.114;13.914;2022-08-19T19:09:23;98452.78;;;21.34;100.00
18678;BME280;9469;51.114;13.914;2022-08-19T19:14:39;98433.69;;;21.09;100.00
18678;BME280;9469;51.114;13.914;2022-08-19T19:20:00;98425.22;;;21.18;100.00
18678;BME280;9469;51.114;13.914;2022-08-19T19:25:06;98418.69;;;21.19;100.00
18678;BME280;9469;51.114;13.914;2022-08-19T19:30:18;98407.09;;;21.22;100.00
18678;BME280;9469;51.114;13.914;2022-08-19T19:41:14;98419.03;;;21.14;100.00
18678;BME280;9469;51.114;13.914;2022-08-19T19:57:46;98453.66;;;21.01;100.00
18678;BME280;9469;51.114;13.914;2022-08-19T20:02:51;98444.50;;;21.09;100.00
18678;BME280;9469;51.114;13.914;2022-08-19T20:08:03;98420.44;;;21.01;100.00
18678;BME280;9469;51.114;13.914;2022-08-19T20:13:24;98439.66;;;20.92;100.00
18678;BME280;9469;51.114;13.914;2022-08-19T20:18:34;98448.09;;;20.84;100.00
18678;BME280;9469;51.114;13.914;2022-08-19T20:23:41;98465.91;;;20.85;100.00
18678;BME280;9469;51.114;13.914;2022-08-19T20:29:13;98499.59;;;20.98;100.00
18678;BME280;9469;51.114;13.914;2022-08-19T20:34:41;98491.44;;;20.91;100.00
18678;BME280;9469;51.114;13.914;2022-08-19T20:39:50;98458.19;;;20.90;100.00
18678;BME280;9469;51.114;13.914;2022-08-19T20:45:00;98464.97;;;20.70;100.00
18678;BME280;9469;51.114;13.914;2022-08-19T20:50:26;98467.75;;;20.81;100.00
18678;BME280;9469;51.114;13.914;2022-08-19T20:55:33;98466.50;;;20.67;100.00
18678;BME280;9469;51.114;13.914;2022-08-19T21:00:43;98452.84;;;20.97;100.00
18678;BME280;9469;51.114;13.914;2022-08-19T21:05:49;98467.72;;;20.73;100.00
18678;BME280;9469;51.114;13.914;2022-08-19T21:10:56;98459.63;;;20.77;100.00
18678;BME280;9469;51.114;13.914;2022-08-19T21:16:05;98471.22;;;20.78;100.00
18678;BME280;9469;51.114;13.914;2022-08-19T21:21:10;98460.00;;;20.35;100.00
18678;BME280;9469;51.114;13.914;2022-08-19T21:26:18;98464.31;;;20.43;100.00
18678;BME280;9469;51.114;13.914;2022-08-19T21:31:26;98457.66;;;20.34;100.00
18678;BME280;9469;51.114;13.914;2022-08-19T21:36:32;98453.34;;;20.62;100.00
18678;BME280;9469;51.114;13.914;2022-08-19T21:41:39;98450.97;;;20.57;100.00
18678;BME280;9469;51.114;13.914;2022-08-19T21:46:47;98464.50;;;20.61;100.00
18678;BME280;9469;51.114;13.914;2022-08-19T21:51:52;98445.00;;;20.41;100.00
18678;BME280;9469;51.114;13.914;2022-08-19T21:56:58;98436.94;;;20.45;100.00
18678;BME280;9469;51.114;13.914;2022-08-19T22:02:13;98459.16;;;20.64;100.00
18678;BME280;9469;51.114;13.914;2022-08-19T22:07:23;98460.28;;;20.63;100.00
18678;BME280;9469;51.114;13.914;2022-08-19T22:12:33;98446.91;;;20.81;100.00
18678;BME280;9469;51.114;13.914;2022-08-19T22:17:50;98452.66;;;20.72;100.00
18678;BME280;9469;51.114;13.914;2022-08-19T22:22:59;98469.09;;;20.57;100.00
18678;BME280;9469;51.114;13.914;2022-08-19T22:28:11;98463.28;;;20.55;100.00
18678;BME280;9469;51.114;13.914;2022-08-19T22:33:22;98462.59;;;20.61;100.00
18678;BME280;9469;51.114;13.914;2022-08-19T22:38:35;98461.78;;;20.61;100.00
18678;BME280;9469;51.114;13.914;2022-08-19T22:49:22;98472.50;;;20.50;100.00
18678;BME280;9469;51.114;13.914;2022-08-19T22:54:29;98458.38;;;20.27;100.00
18678;BME280;9469;51.114;13.914;2022-08-19T22:59:36;98477.25;;;20.27;100.00
18678;BME280;9469;51.114;13.914;2022-08-19T23:04:45;98465.94;;;20.18;100.00
18678;BME280;9469;51.114;13.914;2022-08-19T23:09:56;98450.53;;;20.19;100.00
18678;BME280;9469;51.114;13.914;2022-08-19T23:15:07;98445.81;;;20.12;100.00
18678;BME280;9469;51.114;13.914;2022-08-19T23:20:18;98439.22;;;20.39;100.00
18678;BME280;9469;51.114;13.914;2022-08-19T23:25:27;98431.25;;;20.20;100.00
18678;BME280;9469;51.114;13.914;2022-08-19T23:30:39;98444.28;;;20.44;100.00
18678;BME280;9469;51.114;13.914;2022-08-19T23:35:47;98441.97;;;20.46;100.00
18678;BME280;9469;51.114;13.914;2022-08-19T23:40:56;98444.63;;;20.43;100.00
18678;BME280;9469;51.114;13.914;2022-08-19T23:46:06;98442.22;;;20.31;100.00
18678;BME280;9469;51.114;13.914;2022-08-19T23:51:18;98437.44;;;20.21;100.00
18678;BME280;9469;51.114;13.914;2022-08-19T23:56:23;98445.81;;;20.12;100.00
